sensor_id;sensor_type;location;lat;lon;timestamp;pressure;altitude;pressure_sealevel;temperature;humidity
27613;BME280;15036;48.094;-1.690;2023-09-18T00:01:38;100008.53;;;24.33;58.90
27613;BME280;15036;48.094;-1.690;2023-09-18T00:04:05;100005.88;;;24.28;59.05
27613;BME280;15036;48.094;-1.690;2023-09-18T00:06:30;99994.91;;;24.18;59.64
27613;BME280;15036;48.094;-1.690;2023-09-18T00:08:56;99998.22;;;24.33;59.17
27613;BME280;15036;48.094;-1.690;2023-09-18T00:11:21;99999.13;;;24.29;59.21
27613;BME280;15036;48.094;-1.690;2023-09-18T00:13:47;99997.50;;;24.41;58.74
27613;BME280;15036;48.094;-1.690;2023-09-18T00:16:12;99997.09;;;24.34;58.90
27613;BME280;15036;48.094;-1.690;2023-09-18T00:18:38;99993.03;;;24.27;59.04
27613;BME280;15036;48.094;-1.690;2023-09-18T00:21:03;99993.28;;;24.30;58.85
27613;BME280;15036;48.094;-1.690;2023-09-18T00:23:29;99990.34;;;24.22;59.06
27613;BME280;15036;48.094;-1.690;2023-09-18T00:25:54;99995.09;;;24.21;58.90
27613;BME280;15036;48.094;-1.690;2023-09-18T00:28:20;99997.69;;;24.31;58.83
27613;BME280;15036;48.094;-1.690;2023-09-18T00:30:49;99990.66;;;24.06;59.57
27613;BME280;15036;48.094;-1.690;2023-09-18T00:33:15;99986.00;;;24.16;59.36
27613;BME280;15036;48.094;-1.690;2023-09-18T00:35:40;99998.84;;;24.30;59.13
27613;BME280;15036;48.094;-1.690;2023-09-18T00:38:06;99996.25;;;24.20;59.81
27613;BME280;15036;48.094;-1.690;2023-09-18T00:40:32;100006.19;;;24.40;59.15
27613;BME280;15036;48.094;-1.690;2023-09-18T00:42:58;99997.56;;;24.23;59.61
27613;BME280;15036;48.094;-1.690;2023-09-18T00:45:23;99996.53;;;24.19;59.89
27613;BME280;15036;48.094;-1.690;2023-09-18T00:47:49;99991.59;;;24.29;59.65
27613;BME280;15036;48.094;-1.690;2023-09-18T00:50:15;99992.22;;;24.26;59.73
27613;BME280;15036;48.094;-1.690;2023-09-18T00:52:41;99983.72;;;24.18;60.49
27613;BME280;15036;48.094;-1.690;2023-09-18T00:55:07;99991.09;;;24.41;59.79
27613;BME280;15036;48.094;-1.690;2023-09-18T00:57:33;99988.41;;;24.22;60.61
27613;BME280;15036;48.094;-1.690;2023-09-18T00:59:59;99982.13;;;24.30;60.24
27613;BME280;15036;48.094;-1.690;2023-09-18T01:02:25;99978.16;;;24.31;60.29
27613;BME280;15036;48.094;-1.690;2023-09-18T01:04:51;99975.91;;;24.33;60.53
27613;BME280;15036;48.094;-1.690;2023-09-18T01:07:17;99974.44;;;24.08;61.44
27613;BME280;15036;48.094;-1.690;2023-09-18T01:09:43;99972.97;;;24.11;61.54
27613;BME280;15036;48.094;-1.690;2023-09-18T01:12:18;99983.22;;;24.16;61.51
27613;BME280;15036;48.094;-1.690;2023-09-18T01:15:48;99988.91;;;24.24;61.49
27613;BME280;15036;48.094;-1.690;2023-09-18T01:17:53;99986.03;;;24.29;61.10
27613;BME280;15036;48.094;-1.690;2023-09-18T01:20:19;99984.97;;;24.12;61.92
27613;BME280;15036;48.094;-1.690;2023-09-18T01:22:44;99991.28;;;24.31;61.36
27613;BME280;15036;48.094;-1.690;2023-09-18T01:25:10;99980.34;;;24.34;61.47
27613;BME280;15036;48.094;-1.690;2023-09-18T01:27:35;99982.91;;;24.31;61.38
27613;BME280;15036;48.094;-1.690;2023-09-18T01:30:01;99981.84;;;24.13;62.52
27613;BME280;15036;48.094;-1.690;2023-09-18T01:32:29;99985.72;;;24.31;62.33
27613;BME280;15036;48.094;-1.690;2023-09-18T01:34:57;99991.59;;;24.29;62.38
27613;BME280;15036;48.094;-1.690;2023-09-18T01:37:29;99982.84;;;24.36;62.68
27613;BME280;15036;48.094;-1.690;2023-09-18T01:39:56;99986.16;;;24.51;62.25
27613;BME280;15036;48.094;-1.690;2023-09-18T01:42:26;99983.03;;;24.53;62.34
27613;BME280;15036;48.094;-1.690;2023-09-18T01:44:53;99976.63;;;24.39;63.36
27613;BME280;15036;48.094;-1.690;2023-09-18T01:47:20;99982.19;;;24.39;63.28
27613;BME280;15036;48.094;-1.690;2023-09-18T01:49:48;99991.84;;;24.60;63.05
27613;BME280;15036;48.094;-1.690;2023-09-18T01:52:14;99985.97;;;24.75;62.65
27613;BME280;15036;48.094;-1.690;2023-09-18T01:54:39;99975.63;;;24.89;62.17
27613;BME280;15036;48.094;-1.690;2023-09-18T01:57:05;99977.69;;;24.97;61.92
27613;BME280;15036;48.094;-1.690;2023-09-18T01:59:33;99974.97;;;24.92;62.05
27613;BME280;15036;48.094;-1.690;2023-09-18T02:01:58;99967.50;;;25.15;61.53
27613;BME280;15036;48.094;-1.690;2023-09-18T02:04:24;99967.19;;;25.16;61.59
27613;BME280;15036;48.094;-1.690;2023-09-18T02:06:51;99965.75;;;25.05;61.82
27613;BME280;15036;48.094;-1.690;2023-09-18T02:09:17;99968.88;;;25.04;62.07
27613;BME280;15036;48.094;-1.690;2023-09-18T02:11:44;99972.25;;;25.14;61.82
27613;BME280;15036;48.094;-1.690;2023-09-18T02:14:10;99970.91;;;25.25;61.33
27613;BME280;15036;48.094;-1.690;2023-09-18T02:16:38;99972.22;;;25.28;61.52
27613;BME280;15036;48.094;-1.690;2023-09-18T02:19:07;99969.13;;;25.29;61.50
27613;BME280;15036;48.094;-1.690;2023-09-18T02:21:33;99973.13;;;25.01;61.99
27613;BME280;15036;48.094;-1.690;2023-09-18T02:23:58;99963.25;;;25.17;61.58
27613;BME280;15036;48.094;-1.690;2023-09-18T02:26:24;99968.75;;;25.09;61.88
27613;BME280;15036;48.094;-1.690;2023-09-18T02:28:54;99965.41;;;25.20;61.56
27613;BME280;15036;48.094;-1.690;2023-09-18T02:31:20;99968.28;;;25.42;61.09
27613;BME280;15036;48.094;-1.690;2023-09-18T02:33:46;99971.09;;;25.29;61.53
27613;BME280;15036;48.094;-1.690;2023-09-18T02:36:12;99960.00;;;25.59;60.47
27613;BME280;15036;48.094;-1.690;2023-09-18T02:38:37;99956.34;;;25.50;60.61
27613;BME280;15036;48.094;-1.690;2023-09-18T02:41:03;99968.91;;;25.26;61.34
27613;BME280;15036;48.094;-1.690;2023-09-18T02:43:28;99969.63;;;25.31;61.09
27613;BME280;15036;48.094;-1.690;2023-09-18T02:45:54;99966.56;;;25.19;61.41
27613;BME280;15036;48.094;-1.690;2023-09-18T02:48:19;99965.97;;;25.09;61.67
27613;BME280;15036;48.094;-1.690;2023-09-18T02:50:45;99973.03;;;25.28;61.28
27613;BME280;15036;48.094;-1.690;2023-09-18T02:53:18;99971.91;;;25.29;60.91
27613;BME280;15036;48.094;-1.690;2023-09-18T02:55:45;99967.88;;;25.22;61.31
27613;BME280;15036;48.094;-1.690;2023-09-18T02:58:11;99966.00;;;24.95;61.76
27613;BME280;15036;48.094;-1.690;2023-09-18T03:00:43;99956.84;;;25.17;61.05
27613;BME280;15036;48.094;-1.690;2023-09-18T03:03:10;99956.47;;;24.96;61.40
27613;BME280;15036;48.094;-1.690;2023-09-18T03:05:36;99955.34;;;24.97;60.73
27613;BME280;15036;48.094;-1.690;2023-09-18T03:08:02;99955.03;;;24.85;60.75
27613;BME280;15036;48.094;-1.690;2023-09-18T03:10:27;99949.56;;;24.93;60.50
27613;BME280;15036;48.094;-1.690;2023-09-18T03:12:52;99951.72;;;24.83;60.79
27613;BME280;15036;48.094;-1.690;2023-09-18T03:15:18;99958.50;;;25.04;59.83
27613;BME280;15036;48.094;-1.690;2023-09-18T03:17:44;99959.91;;;24.79;60.61
27613;BME280;15036;48.094;-1.690;2023-09-18T03:20:09;99956.41;;;24.74;60.54
27613;BME280;15036;48.094;-1.690;2023-09-18T03:22:35;99959.75;;;24.98;60.04
27613;BME280;15036;48.094;-1.690;2023-09-18T03:25:00;99954.59;;;25.05;59.48
27613;BME280;15036;48.094;-1.690;2023-09-18T03:27:26;99952.72;;;25.01;59.57
27613;BME280;15036;48.094;-1.690;2023-09-18T03:29:57;99950.50;;;24.62;60.41
27613;BME280;15036;48.094;-1.690;2023-09-18T03:32:23;99949.34;;;24.76;59.98
27613;BME280;15036;48.094;-1.690;2023-09-18T03:34:51;99959.88;;;24.39;60.47
27613;BME280;15036;48.094;-1.690;2023-09-18T03:37:17;99967.00;;;24.45;61.05
27613;BME280;15036;48.094;-1.690;2023-09-18T03:39:43;99972.13;;;24.83;60.04
27613;BME280;15036;48.094;-1.690;2023-09-18T03:42:09;99972.19;;;25.06;59.38
27613;BME280;15036;48.094;-1.690;2023-09-18T03:44:34;99969.72;;;24.63;60.44
27613;BME280;15036;48.094;-1.690;2023-09-18T03:47:00;99965.97;;;25.09;59.40
27613;BME280;15036;48.094;-1.690;2023-09-18T03:49:27;99956.19;;;25.20;59.24
27613;BME280;15036;48.094;-1.690;2023-09-18T03:51:53;99955.69;;;25.18;59.20
27613;BME280;15036;48.094;-1.690;2023-09-18T03:54:18;99959.03;;;25.06;59.55
27613;BME280;15036;48.094;-1.690;2023-09-18T03:56:44;99958.28;;;25.14;59.29
27613;BME280;15036;48.094;-1.690;2023-09-18T03:59:11;99958.00;;;25.02;59.60
27613;BME280;15036;48.094;-1.690;2023-09-18T04:01:36;99965.78;;;24.91;60.08
27613;BME280;15036;48.094;-1.690;2023-09-18T04:04:01;99963.75;;;24.83;60.31
27613;BME280;15036;48.094;-1.690;2023-09-18T04:06:36;99971.47;;;24.86;60.24
27613;BME280;15036;48.094;-1.690;2023-09-18T04:09:01;99956.97;;;24.71;60.54
27613;BME280;15036;48.094;-1.690;2023-09-18T04:11:27;99947.38;;;24.90;59.76
27613;BME280;15036;48.094;-1.690;2023-09-18T04:13:52;99960.94;;;24.83;60.00
27613;BME280;15036;48.094;-1.690;2023-09-18T04:16:17;99955.25;;;24.75;60.06
27613;BME280;15036;48.094;-1.690;2023-09-18T04:18:43;99967.47;;;24.79;60.14
27613;BME280;15036;48.094;-1.690;2023-09-18T04:21:08;99959.56;;;24.94;59.46
27613;BME280;15036;48.094;-1.690;2023-09-18T04:23:35;99961.00;;;25.06;59.15
27613;BME280;15036;48.094;-1.690;2023-09-18T04:26:01;99964.78;;;24.74;60.20
27613;BME280;15036;48.094;-1.690;2023-09-18T04:28:27;99972.91;;;24.57;60.29
27613;BME280;15036;48.094;-1.690;2023-09-18T04:30:52;99974.25;;;24.32;60.96
27613;BME280;15036;48.094;-1.690;2023-09-18T04:33:18;99977.13;;;24.27;61.16
27613;BME280;15036;48.094;-1.690;2023-09-18T04:35:44;99970.63;;;24.32;61.47
27613;BME280;15036;48.094;-1.690;2023-09-18T04:38:09;99961.09;;;24.19;61.23
27613;BME280;15036;48.094;-1.690;2023-09-18T04:40:40;99964.03;;;23.95;62.24
27613;BME280;15036;48.094;-1.690;2023-09-18T04:43:05;99969.91;;;23.94;62.03
27613;BME280;15036;48.094;-1.690;2023-09-18T04:45:31;99965.91;;;24.00;61.72
27613;BME280;15036;48.094;-1.690;2023-09-18T04:47:57;99972.72;;;24.40;60.64
27613;BME280;15036;48.094;-1.690;2023-09-18T04:50:22;99964.22;;;24.45;60.38
27613;BME280;15036;48.094;-1.690;2023-09-18T04:52:48;99971.88;;;24.66;59.70
27613;BME280;15036;48.094;-1.690;2023-09-18T04:55:16;99975.06;;;24.33;60.40
27613;BME280;15036;48.094;-1.690;2023-09-18T04:57:41;99964.66;;;24.52;59.84
27613;BME280;15036;48.094;-1.690;2023-09-18T05:00:07;99965.47;;;24.52;60.04
27613;BME280;15036;48.094;-1.690;2023-09-18T05:02:34;99959.78;;;24.71;59.40
27613;BME280;15036;48.094;-1.690;2023-09-18T05:05:00;99963.50;;;24.39;60.33
27613;BME280;15036;48.094;-1.690;2023-09-18T05:07:25;99960.63;;;24.58;59.63
27613;BME280;15036;48.094;-1.690;2023-09-18T05:09:51;99958.13;;;24.43;60.06
27613;BME280;15036;48.094;-1.690;2023-09-18T05:12:16;99950.69;;;24.52;59.59
27613;BME280;15036;48.094;-1.690;2023-09-18T05:14:43;99952.66;;;24.38;60.13
27613;BME280;15036;48.094;-1.690;2023-09-18T05:17:15;99956.88;;;24.49;59.82
27613;BME280;15036;48.094;-1.690;2023-09-18T05:19:41;99958.84;;;24.35;60.23
27613;BME280;15036;48.094;-1.690;2023-09-18T05:22:08;99955.13;;;24.53;59.67
27613;BME280;15036;48.094;-1.690;2023-09-18T05:24:35;99943.56;;;24.46;59.93
27613;BME280;15036;48.094;-1.690;2023-09-18T05:27:01;99940.25;;;24.57;59.69
27613;BME280;15036;48.094;-1.690;2023-09-18T05:29:26;99941.28;;;24.61;59.27
27613;BME280;15036;48.094;-1.690;2023-09-18T05:31:51;99948.44;;;24.54;59.75
27613;BME280;15036;48.094;-1.690;2023-09-18T05:34:17;99956.06;;;24.62;59.61
27613;BME280;15036;48.094;-1.690;2023-09-18T05:36:42;99959.06;;;24.52;59.65
27613;BME280;15036;48.094;-1.690;2023-09-18T05:39:08;99954.91;;;24.63;59.59
27613;BME280;15036;48.094;-1.690;2023-09-18T05:41:38;99956.47;;;24.69;59.46
27613;BME280;15036;48.094;-1.690;2023-09-18T05:44:04;99948.81;;;24.61;59.69
27613;BME280;15036;48.094;-1.690;2023-09-18T05:46:32;99953.69;;;24.42;60.16
27613;BME280;15036;48.094;-1.690;2023-09-18T05:48:57;99956.69;;;24.59;59.72
27613;BME280;15036;48.094;-1.690;2023-09-18T05:51:23;99948.84;;;24.34;60.37
27613;BME280;15036;48.094;-1.690;2023-09-18T05:53:48;99950.50;;;24.62;59.51
27613;BME280;15036;48.094;-1.690;2023-09-18T05:56:14;99950.78;;;24.47;60.21
27613;BME280;15036;48.094;-1.690;2023-09-18T05:58:42;99954.53;;;24.56;59.81
27613;BME280;15036;48.094;-1.690;2023-09-18T06:01:07;99960.91;;;24.29;60.77
27613;BME280;15036;48.094;-1.690;2023-09-18T06:03:33;99961.44;;;24.45;60.42
27613;BME280;15036;48.094;-1.690;2023-09-18T06:06:02;99963.81;;;24.38;60.83
27613;BME280;15036;48.094;-1.690;2023-09-18T06:08:28;99972.50;;;24.36;60.89
27613;BME280;15036;48.094;-1.690;2023-09-18T06:10:54;99968.63;;;24.19;61.40
27613;BME280;15036;48.094;-1.690;2023-09-18T06:13:20;99964.34;;;24.40;60.85
27613;BME280;15036;48.094;-1.690;2023-09-18T06:15:46;99965.78;;;24.37;61.00
27613;BME280;15036;48.094;-1.690;2023-09-18T06:18:11;99969.72;;;24.50;60.64
27613;BME280;15036;48.094;-1.690;2023-09-18T06:20:37;99976.34;;;24.67;60.22
27613;BME280;15036;48.094;-1.690;2023-09-18T06:23:02;99978.47;;;24.30;61.17
27613;BME280;15036;48.094;-1.690;2023-09-18T06:25:29;99985.75;;;24.58;60.61
27613;BME280;15036;48.094;-1.690;2023-09-18T06:27:56;99993.75;;;24.78;60.11
27613;BME280;15036;48.094;-1.690;2023-09-18T06:30:22;99997.94;;;24.62;60.32
27613;BME280;15036;48.094;-1.690;2023-09-18T06:32:47;99999.69;;;24.58;60.47
27613;BME280;15036;48.094;-1.690;2023-09-18T06:35:13;99999.59;;;24.76;59.82
27613;BME280;15036;48.094;-1.690;2023-09-18T06:37:38;100006.13;;;24.85;59.73
27613;BME280;15036;48.094;-1.690;2023-09-18T06:40:04;100002.78;;;24.43;60.85
27613;BME280;15036;48.094;-1.690;2023-09-18T06:42:30;100002.88;;;24.38;61.10
27613;BME280;15036;48.094;-1.690;2023-09-18T06:44:55;100007.44;;;24.47;60.92
27613;BME280;15036;48.094;-1.690;2023-09-18T06:47:21;100015.09;;;24.55;60.84
27613;BME280;15036;48.094;-1.690;2023-09-18T06:49:46;100010.56;;;25.00;59.69
27613;BME280;15036;48.094;-1.690;2023-09-18T06:52:12;100019.56;;;24.70;60.46
27613;BME280;15036;48.094;-1.690;2023-09-18T06:54:38;100022.88;;;24.72;60.31
27613;BME280;15036;48.094;-1.690;2023-09-18T06:57:03;100022.66;;;24.82;60.15
27613;BME280;15036;48.094;-1.690;2023-09-18T06:59:29;100041.84;;;24.56;60.94
27613;BME280;15036;48.094;-1.690;2023-09-18T07:01:55;100037.94;;;25.25;59.01
27613;BME280;15036;48.094;-1.690;2023-09-18T07:04:21;100048.50;;;25.15;59.05
27613;BME280;15036;48.094;-1.690;2023-09-18T07:06:46;100045.53;;;25.11;59.54
27613;BME280;15036;48.094;-1.690;2023-09-18T07:09:12;100050.34;;;24.65;60.45
27613;BME280;15036;48.094;-1.690;2023-09-18T07:11:37;100052.66;;;24.90;60.00
27613;BME280;15036;48.094;-1.690;2023-09-18T07:14:03;100046.84;;;25.27;58.62
27613;BME280;15036;48.094;-1.690;2023-09-18T07:16:31;100049.88;;;25.17;58.68
27613;BME280;15036;48.094;-1.690;2023-09-18T07:18:56;100054.81;;;25.20;58.83
27613;BME280;15036;48.094;-1.690;2023-09-18T07:21:21;100061.03;;;25.17;58.94
27613;BME280;15036;48.094;-1.690;2023-09-18T07:23:47;100063.63;;;25.00;59.40
27613;BME280;15036;48.094;-1.690;2023-09-18T07:26:12;100070.03;;;24.87;59.43
27613;BME280;15036;48.094;-1.690;2023-09-18T07:28:38;100067.03;;;25.24;58.32
27613;BME280;15036;48.094;-1.690;2023-09-18T07:31:07;100066.94;;;25.29;58.54
27613;BME280;15036;48.094;-1.690;2023-09-18T07:33:34;100067.16;;;25.06;58.94
27613;BME280;15036;48.094;-1.690;2023-09-18T07:35:59;100074.72;;;24.91;59.09
27613;BME280;15036;48.094;-1.690;2023-09-18T07:38:25;100074.16;;;25.30;58.48
27613;BME280;15036;48.094;-1.690;2023-09-18T07:40:50;100081.09;;;24.92;59.03
27613;BME280;15036;48.094;-1.690;2023-09-18T07:43:16;100086.28;;;25.53;57.92
27613;BME280;15036;48.094;-1.690;2023-09-18T07:45:41;100081.72;;;25.79;56.99
27613;BME280;15036;48.094;-1.690;2023-09-18T07:48:07;100082.44;;;25.85;56.77
27613;BME280;15036;48.094;-1.690;2023-09-18T07:50:34;100092.06;;;25.56;57.16
27613;BME280;15036;48.094;-1.690;2023-09-18T07:53:00;100093.59;;;25.62;56.90
27613;BME280;15036;48.094;-1.690;2023-09-18T07:55:25;100097.97;;;25.55;57.06
27613;BME280;15036;48.094;-1.690;2023-09-18T07:57:51;100091.66;;;25.85;56.32
27613;BME280;15036;48.094;-1.690;2023-09-18T08:00:17;100094.16;;;25.51;56.89
27613;BME280;15036;48.094;-1.690;2023-09-18T08:02:43;100101.63;;;25.77;56.15
27613;BME280;15036;48.094;-1.690;2023-09-18T08:05:09;100094.56;;;25.44;56.71
27613;BME280;15036;48.094;-1.690;2023-09-18T08:07:36;100103.75;;;25.18;57.11
27613;BME280;15036;48.094;-1.690;2023-09-18T08:10:02;100091.34;;;25.10;57.23
27613;BME280;15036;48.094;-1.690;2023-09-18T08:12:31;100094.28;;;25.68;55.71
27613;BME280;15036;48.094;-1.690;2023-09-18T08:14:57;100093.53;;;25.13;55.91
27613;BME280;15036;48.094;-1.690;2023-09-18T08:17:24;100102.63;;;25.82;54.96
27613;BME280;15036;48.094;-1.690;2023-09-18T08:19:51;100100.44;;;25.56;55.01
27613;BME280;15036;48.094;-1.690;2023-09-18T08:22:17;100104.69;;;25.90;54.18
27613;BME280;15036;48.094;-1.690;2023-09-18T08:24:45;100106.63;;;25.53;54.63
27613;BME280;15036;48.094;-1.690;2023-09-18T08:27:13;100110.97;;;25.95;53.65
27613;BME280;15036;48.094;-1.690;2023-09-18T08:29:38;100106.09;;;25.78;54.00
27613;BME280;15036;48.094;-1.690;2023-09-18T08:32:03;100111.97;;;25.91;53.20
27613;BME280;15036;48.094;-1.690;2023-09-18T08:34:29;100118.56;;;25.95;52.81
27613;BME280;15036;48.094;-1.690;2023-09-18T08:36:54;100118.28;;;25.47;53.24
27613;BME280;15036;48.094;-1.690;2023-09-18T08:39:19;100112.75;;;26.05;51.93
27613;BME280;15036;48.094;-1.690;2023-09-18T08:41:48;100125.63;;;26.28;51.13
27613;BME280;15036;48.094;-1.690;2023-09-18T08:44:17;100128.59;;;25.96;52.44
27613;BME280;15036;48.094;-1.690;2023-09-18T08:46:43;100132.69;;;25.76;52.68
27613;BME280;15036;48.094;-1.690;2023-09-18T08:49:10;100135.59;;;26.20;51.57
27613;BME280;15036;48.094;-1.690;2023-09-18T08:51:37;100135.31;;;25.72;52.59
27613;BME280;15036;48.094;-1.690;2023-09-18T08:54:04;100128.09;;;26.29;51.64
27613;BME280;15036;48.094;-1.690;2023-09-18T08:56:31;100118.72;;;26.56;50.76
27613;BME280;15036;48.094;-1.690;2023-09-18T08:58:57;100124.16;;;25.95;51.61
27613;BME280;15036;48.094;-1.690;2023-09-18T09:01:25;100123.53;;;25.98;51.88
27613;BME280;15036;48.094;-1.690;2023-09-18T09:03:50;100119.84;;;25.89;51.82
27613;BME280;15036;48.094;-1.690;2023-09-18T09:06:16;100128.25;;;26.11;51.57
27613;BME280;15036;48.094;-1.690;2023-09-18T09:08:42;100128.78;;;26.35;50.87
27613;BME280;15036;48.094;-1.690;2023-09-18T09:11:07;100125.97;;;26.13;51.13
27613;BME280;15036;48.094;-1.690;2023-09-18T09:13:33;100126.88;;;26.44;50.90
27613;BME280;15036;48.094;-1.690;2023-09-18T09:15:58;100132.09;;;26.37;50.24
27613;BME280;15036;48.094;-1.690;2023-09-18T09:18:27;100128.59;;;25.96;51.69
27613;BME280;15036;48.094;-1.690;2023-09-18T09:21:03;100124.88;;;26.44;50.94
27613;BME280;15036;48.094;-1.690;2023-09-18T09:23:46;100127.63;;;26.58;50.32
27613;BME280;15036;48.094;-1.690;2023-09-18T09:26:17;100127.53;;;26.05;50.57
27613;BME280;15036;48.094;-1.690;2023-09-18T09:28:43;100135.88;;;25.97;51.55
27613;BME280;15036;48.094;-1.690;2023-09-18T09:31:10;100137.81;;;26.10;51.63
27613;BME280;15036;48.094;-1.690;2023-09-18T09:33:36;100134.38;;;26.57;51.73
27613;BME280;15036;48.094;-1.690;2023-09-18T09:36:04;100126.75;;;26.49;51.45
27613;BME280;15036;48.094;-1.690;2023-09-18T09:38:32;100136.13;;;26.22;52.19
27613;BME280;15036;48.094;-1.690;2023-09-18T09:41:02;100134.38;;;26.13;52.69
27613;BME280;15036;48.094;-1.690;2023-09-18T09:43:31;100135.72;;;26.02;52.93
27613;BME280;15036;48.094;-1.690;2023-09-18T09:46:00;100136.91;;;26.23;51.94
27613;BME280;15036;48.094;-1.690;2023-09-18T09:48:26;100143.56;;;25.77;52.38
27613;BME280;15036;48.094;-1.690;2023-09-18T09:50:58;100138.41;;;26.20;51.44
27613;BME280;15036;48.094;-1.690;2023-09-18T09:53:44;100145.88;;;26.11;52.12
27613;BME280;15036;48.094;-1.690;2023-09-18T09:56:14;100147.88;;;26.33;50.93
27613;BME280;15036;48.094;-1.690;2023-09-18T09:58:40;100142.25;;;26.33;50.73
27613;BME280;15036;48.094;-1.690;2023-09-18T10:01:11;100152.13;;;26.52;50.31
27613;BME280;15036;48.094;-1.690;2023-09-18T10:03:44;100151.31;;;26.30;50.27
27613;BME280;15036;48.094;-1.690;2023-09-18T10:06:11;100151.81;;;26.32;50.41
27613;BME280;15036;48.094;-1.690;2023-09-18T10:08:40;100166.84;;;26.00;51.57
27613;BME280;15036;48.094;-1.690;2023-09-18T10:11:07;100159.09;;;25.84;52.36
27613;BME280;15036;48.094;-1.690;2023-09-18T10:13:46;100159.47;;;26.04;52.40
27613;BME280;15036;48.094;-1.690;2023-09-18T10:16:13;100167.06;;;25.90;52.49
27613;BME280;15036;48.094;-1.690;2023-09-18T10:24:25;100164.00;;;26.14;51.56
27613;BME280;15036;48.094;-1.690;2023-09-18T10:27:01;100168.47;;;26.59;50.30
27613;BME280;15036;48.094;-1.690;2023-09-18T10:29:33;100174.28;;;26.05;49.96
27613;BME280;15036;48.094;-1.690;2023-09-18T10:32:03;100171.66;;;26.22;49.76
27613;BME280;15036;48.094;-1.690;2023-09-18T10:34:29;100178.28;;;26.48;49.16
27613;BME280;15036;48.094;-1.690;2023-09-18T10:36:57;100179.75;;;26.45;49.94
27613;BME280;15036;48.094;-1.690;2023-09-18T10:39:26;100193.09;;;26.48;50.58
27613;BME280;15036;48.094;-1.690;2023-09-18T10:41:53;100192.47;;;25.39;55.76
27613;BME280;15036;48.094;-1.690;2023-09-18T10:44:19;100194.34;;;24.84;57.68
27613;BME280;15036;48.094;-1.690;2023-09-18T10:46:49;100202.13;;;25.47;56.62
27613;BME280;15036;48.094;-1.690;2023-09-18T10:49:15;100202.19;;;25.28;56.97
27613;BME280;15036;48.094;-1.690;2023-09-18T10:51:41;100201.16;;;25.24;56.58
27613;BME280;15036;48.094;-1.690;2023-09-18T10:54:12;100204.34;;;25.18;56.52
27613;BME280;15036;48.094;-1.690;2023-09-18T10:56:40;100203.16;;;25.51;55.47
27613;BME280;15036;48.094;-1.690;2023-09-18T10:59:07;100205.72;;;25.74;55.10
27613;BME280;15036;48.094;-1.690;2023-09-18T11:01:34;100204.56;;;25.75;54.81
27613;BME280;15036;48.094;-1.690;2023-09-18T11:04:03;100201.16;;;25.92;54.19
27613;BME280;15036;48.094;-1.690;2023-09-18T11:06:29;100207.38;;;25.75;54.67
27613;BME280;15036;48.094;-1.690;2023-09-18T11:09:05;100211.13;;;25.57;55.16
27613;BME280;15036;48.094;-1.690;2023-09-18T11:11:31;100208.34;;;25.71;54.68
27613;BME280;15036;48.094;-1.690;2023-09-18T11:13:58;100212.63;;;25.23;53.16
27613;BME280;15036;48.094;-1.690;2023-09-18T11:21:32;100215.00;;;26.24;50.72
27613;BME280;15036;48.094;-1.690;2023-09-18T11:24:05;100210.78;;;25.86;49.63
27613;BME280;15036;48.094;-1.690;2023-09-18T11:26:33;100203.84;;;26.33;49.20
27613;BME280;15036;48.094;-1.690;2023-09-18T11:29:10;100214.19;;;26.10;49.26
27613;BME280;15036;48.094;-1.690;2023-09-18T11:31:50;100203.81;;;25.97;48.66
27613;BME280;15036;48.094;-1.690;2023-09-18T11:34:25;100210.94;;;26.75;47.76
27613;BME280;15036;48.094;-1.690;2023-09-18T11:36:57;100206.16;;;26.97;47.23
27613;BME280;15036;48.094;-1.690;2023-09-18T11:39:35;100211.72;;;26.89;46.72
27613;BME280;15036;48.094;-1.690;2023-09-18T11:42:08;100209.19;;;26.43;46.26
27613;BME280;15036;48.094;-1.690;2023-09-18T11:44:35;100197.66;;;27.11;44.41
27613;BME280;15036;48.094;-1.690;2023-09-18T11:47:02;100206.91;;;27.11;44.87
27613;BME280;15036;48.094;-1.690;2023-09-18T11:49:32;100217.50;;;26.12;46.73
27613;BME280;15036;48.094;-1.690;2023-09-18T11:51:59;100216.28;;;26.85;46.03
27613;BME280;15036;48.094;-1.690;2023-09-18T11:54:25;100212.78;;;27.80;44.57
27613;BME280;15036;48.094;-1.690;2023-09-18T11:56:50;100206.53;;;27.91;43.82
27613;BME280;15036;48.094;-1.690;2023-09-18T11:59:16;100220.63;;;27.52;44.58
27613;BME280;15036;48.094;-1.690;2023-09-18T12:01:42;100220.34;;;27.01;44.89
27613;BME280;15036;48.094;-1.690;2023-09-18T12:04:12;100216.25;;;27.68;43.78
27613;BME280;15036;48.094;-1.690;2023-09-18T12:06:41;100219.16;;;28.11;42.83
27613;BME280;15036;48.094;-1.690;2023-09-18T12:09:07;100227.94;;;26.78;45.88
27613;BME280;15036;48.094;-1.690;2023-09-18T12:11:34;100232.78;;;27.39;44.54
27613;BME280;15036;48.094;-1.690;2023-09-18T12:14:01;100229.19;;;27.16;43.97
27613;BME280;15036;48.094;-1.690;2023-09-18T12:16:27;100228.28;;;27.29;43.31
27613;BME280;15036;48.094;-1.690;2023-09-18T12:18:53;100242.16;;;27.04;44.41
27613;BME280;15036;48.094;-1.690;2023-09-18T12:21:18;100242.28;;;26.77;44.87
27613;BME280;15036;48.094;-1.690;2023-09-18T12:23:45;100243.81;;;26.83;44.78
27613;BME280;15036;48.094;-1.690;2023-09-18T12:26:15;100248.97;;;26.89;44.62
27613;BME280;15036;48.094;-1.690;2023-09-18T12:28:44;100246.44;;;27.10;44.86
27613;BME280;15036;48.094;-1.690;2023-09-18T12:31:13;100250.81;;;26.72;45.69
27613;BME280;15036;48.094;-1.690;2023-09-18T12:33:40;100242.34;;;27.16;44.90
27613;BME280;15036;48.094;-1.690;2023-09-18T12:36:07;100247.78;;;27.12;44.79
27613;BME280;15036;48.094;-1.690;2023-09-18T12:38:33;100253.84;;;27.06;45.19
27613;BME280;15036;48.094;-1.690;2023-09-18T12:40:59;100257.38;;;27.20;45.18
27613;BME280;15036;48.094;-1.690;2023-09-18T12:43:39;100248.44;;;27.09;45.06
27613;BME280;15036;48.094;-1.690;2023-09-18T12:46:06;100258.75;;;27.00;45.88
27613;BME280;15036;48.094;-1.690;2023-09-18T12:48:32;100256.72;;;26.92;45.96
27613;BME280;15036;48.094;-1.690;2023-09-18T12:51:05;100268.81;;;27.23;45.76
27613;BME280;15036;48.094;-1.690;2023-09-18T12:53:31;100251.78;;;27.20;45.68
27613;BME280;15036;48.094;-1.690;2023-09-18T12:56:13;100258.47;;;27.10;45.20